Eagle County Regional Airport
KEGE : now visible

Airfield :











YOU CAN JOIN US ON...

 
LOGIN :

Register | Disclaimer

   EN    FR    IT 

 









Legend :    VFR   Marginal VFR   IFR   Intensive IFR   Very Intensive IFR
Visi :
Ceiling :
>= 8 km
>= 3000ft
5 to 8 km
1000 to 3000 ft
1500m to 5 km
500 to 1000 ft
800 to 1500m
200 to 500 ft
< 800m
< 200 ft
Symbols :   Thunderstorms  Fog  Heavy snow  Heavy precipitations  Wind > 20 kt






- Airport Elevation : 6548 ft
- IATA code : EGE


KEGE - Eagle County Regional

CURRENT METAR :
  • 161056Z AUTO 04005KT 10SM CLR 14/12 A3033 RMK AO2 SLP163 T01390117

EXPIRED METARs :
  • 160956Z AUTO 25003KT 10SM CLR 14/12 A3033 RMK AO2 SLP162 T01440122
  • 160856Z AUTO 09005KT 10SM SCT110 15/13 A3033 RMK AO2 RAE32 SLP164 P0000 6//// T01500128 50005
  • 160756Z AUTO 31003KT 10SM -RA OVC100 16/12 A3038 RMK AO2 SLP176 T01610122
  • 160656Z AUTO 25014G23KT 10SM -RA SCT095 17/11 A3037 RMK AO2 LTG DSNT SE AND S RAB45 SLP173 T01720111 PNO $

TAF KEGE
Valid from the 16 at 12:00 until the 17 at 12:00 UTC


161125Z 1612/1712 VRB03KT P6SM FEW090 SCT250
FM161800 VRB04KT P6SM VCTS FEW080CB SCT130
FM162000 26007KT 6SM SHRA BR VCTS SCT090CB BKN110
FM162200 08007KT P6SM VCTS SCT090CB BKN120
FM170400 10005KT P6SM FEW080 SCT200
KZDV FIR / North America



MET'MAP, your aeronautical weather chart ! - Copyright ORBIFLY December 2007 - Disclaimer

ORBIFLY MET'MAP TEAM :

Programming & Development : Alexandra Zaïnal
Original concept : Baudouin d'Aumeries
Technical & hardware support : Manuel Goepfert
Assistance : Marc-Olivier Méhu




SOURCES & CREDITS :

   NOAA       Earth
Advisory